createdAt,value
2023-03-03T00:00:50.382Z,11.38
2023-03-03T00:03:21.448Z,11.77
2023-03-03T00:05:49.531Z,10.73
2023-03-03T00:08:17.277Z,12.48
2023-03-03T00:10:45.275Z,11.32
2023-03-03T00:13:17.318Z,12.10
2023-03-03T00:15:45.103Z,11.93
2023-03-03T00:18:22.966Z,12.35
2023-03-03T00:20:54.586Z,12.30
2023-03-03T00:23:31.125Z,12.82
2023-03-03T00:25:59.734Z,13.93
2023-03-03T00:28:47.918Z,13.82
2023-03-03T00:31:27.870Z,14.07
2023-03-03T00:33:57.912Z,13.75
2023-03-03T00:36:36.982Z,13.95
2023-03-03T00:39:26.228Z,13.68
2023-03-03T00:41:53.934Z,12.32
2023-03-03T00:44:43.882Z,13.65
2023-03-03T00:47:31.922Z,13.30
2023-03-03T00:50:07.900Z,14.30
2023-03-03T00:52:38.038Z,12.90
2023-03-03T00:55:06.764Z,14.85
2023-03-03T00:57:33.912Z,14.18
2023-03-03T01:00:01.048Z,15.18
2023-03-03T01:02:29.505Z,15.98
2023-03-03T01:04:57.650Z,14.95
2023-03-03T01:07:25.461Z,15.00
2023-03-03T01:09:52.776Z,15.27
2023-03-03T01:12:19.853Z,15.52
2023-03-03T01:14:49.691Z,15.80
2023-03-03T01:17:16.905Z,16.40
2023-03-03T01:19:44.060Z,15.55
2023-03-03T01:22:11.114Z,15.95
2023-03-03T01:24:38.124Z,15.65
2023-03-03T01:27:05.163Z,16.67
2023-03-03T01:29:32.173Z,16.83
2023-03-03T01:31:59.314Z,16.40
2023-03-03T01:34:26.397Z,17.25
2023-03-03T01:36:53.487Z,17.63
2023-03-03T01:39:20.561Z,16.00
2023-03-03T01:41:47.622Z,15.05
2023-03-03T01:44:15.857Z,16.00
2023-03-03T01:47:04.954Z,16.88
2023-03-03T01:49:56.118Z,16.23
2023-03-03T01:52:33.699Z,15.68
2023-03-03T01:55:06.959Z,15.80
2023-03-03T01:57:39.345Z,16.10
2023-03-03T02:00:07.684Z,15.88
2023-03-03T02:02:35.878Z,15.00
2023-03-03T02:05:03.053Z,15.63
2023-03-03T02:07:31.895Z,16.20
2023-03-03T02:10:04.587Z,14.05
2023-03-03T02:12:36.227Z,15.37
2023-03-03T02:15:16.209Z,17.05
2023-03-03T02:17:43.793Z,15.25
2023-03-03T02:20:19.187Z,16.15
2023-03-03T02:23:34.037Z,15.82
2023-03-03T02:28:36.851Z,15.05
2023-03-03T02:31:12.368Z,16.08
2023-03-03T02:33:40.944Z,16.45
2023-03-03T02:36:15.609Z,16.38
2023-03-03T02:38:49.527Z,16.52
2023-03-03T02:41:41.497Z,17.27
2023-03-03T02:44:11.448Z,16.05
2023-03-03T02:46:41.019Z,16.23
2023-03-03T02:49:11.297Z,16.60
2023-03-03T02:51:39.506Z,15.38
2023-03-03T02:54:08.352Z,16.80
2023-03-03T02:56:35.957Z,16.70
2023-03-03T02:59:04.772Z,17.10
2023-03-03T03:01:37.420Z,17.55
2023-03-03T03:04:09.558Z,17.42
2023-03-03T03:06:36.887Z,15.65
2023-03-03T03:09:06.221Z,16.17
2023-03-03T03:11:35.177Z,15.40
2023-03-03T03:14:03.873Z,15.63
2023-03-03T03:16:31.967Z,15.88
2023-03-03T03:19:00.529Z,14.35
2023-03-03T03:21:28.686Z,14.75
2023-03-03T03:23:55.798Z,13.73
2023-03-03T03:26:23.290Z,13.98
2023-03-03T03:28:52.033Z,13.35
2023-03-03T03:31:20.420Z,12.50
2023-03-03T03:33:47.971Z,11.75
2023-03-03T03:36:15.037Z,11.50
2023-03-03T03:38:42.237Z,11.82
2023-03-03T03:41:10.790Z,11.10
2023-03-03T03:43:38.032Z,10.60
2023-03-03T03:46:05.424Z,12.00
2023-03-03T03:48:32.634Z,14.20
2023-03-03T03:50:59.929Z,12.25
2023-03-03T03:53:27.540Z,13.00
2023-03-03T03:55:54.708Z,13.52
2023-03-03T03:58:21.912Z,11.70
2023-03-03T04:00:49.365Z,13.88
2023-03-03T04:03:16.604Z,13.45
2023-03-03T04:05:44.324Z,13.93
2023-03-03T04:08:11.651Z,15.27
2023-03-03T04:10:39.104Z,13.40
2023-03-03T04:13:06.419Z,14.27
2023-03-03T04:15:33.640Z,14.90
2023-03-03T04:18:00.692Z,14.38
2023-03-03T04:20:28.603Z,14.05
2023-03-03T04:22:57.577Z,13.07
2023-03-03T04:25:24.794Z,13.85
2023-03-03T04:27:52.903Z,14.13
2023-03-03T04:30:20.322Z,13.18
2023-03-03T04:32:47.792Z,13.18
2023-03-03T04:35:14.966Z,12.70
2023-03-03T04:37:42.032Z,13.55
2023-03-03T04:40:10.130Z,12.45
2023-03-03T04:42:37.418Z,12.27
2023-03-03T04:45:05.533Z,11.48
2023-03-03T04:47:32.606Z,10.30
2023-03-03T04:50:00.768Z,9.65
2023-03-03T04:52:29.265Z,9.07
2023-03-03T04:54:56.407Z,10.77
2023-03-03T04:57:23.505Z,10.18
2023-03-03T04:59:51.500Z,9.50
2023-03-03T05:02:18.959Z,11.13
2023-03-03T05:04:46.113Z,10.02
2023-03-03T05:07:13.217Z,11.65
2023-03-03T05:09:40.244Z,10.23
2023-03-03T05:12:07.449Z,9.88
2023-03-03T05:14:34.496Z,11.52
2023-03-03T05:17:04.589Z,12.02
2023-03-03T05:19:31.867Z,11.20
2023-03-03T05:22:00.655Z,10.85
2023-03-03T05:24:29.060Z,12.77
2023-03-03T05:26:56.314Z,10.88
2023-03-03T05:29:23.846Z,12.20
2023-03-03T05:31:51.146Z,12.75
2023-03-03T05:34:18.267Z,12.27
2023-03-03T05:36:45.404Z,12.93
2023-03-03T05:39:12.554Z,12.35
2023-03-03T05:41:40.260Z,12.60
2023-03-03T05:44:07.541Z,12.60
2023-03-03T05:46:34.707Z,13.15
2023-03-03T05:49:02.329Z,13.32
2023-03-03T05:51:29.568Z,12.23
2023-03-03T05:53:57.414Z,13.98
2023-03-03T05:56:24.519Z,11.02
2023-03-03T05:58:51.738Z,12.10
2023-03-03T06:01:18.854Z,12.50
2023-03-03T06:03:45.874Z,12.00
2023-03-03T06:06:14.078Z,11.85
2023-03-03T06:08:41.186Z,13.18
2023-03-03T06:11:08.266Z,12.50
2023-03-03T06:13:35.278Z,12.57
2023-03-03T06:16:02.409Z,12.38
2023-03-03T06:18:29.468Z,12.85
2023-03-03T06:20:57.563Z,12.10
2023-03-03T06:23:24.893Z,13.63
2023-03-03T06:25:53.240Z,11.50
2023-03-03T06:28:20.383Z,12.60
2023-03-03T06:30:47.464Z,10.38
2023-03-03T06:33:14.493Z,10.35
2023-03-03T06:35:41.649Z,11.20
2023-03-03T06:38:08.688Z,10.90
2023-03-03T06:40:35.794Z,11.23
2023-03-03T06:43:04.264Z,11.45
2023-03-03T06:45:31.401Z,11.95
2023-03-03T06:47:58.699Z,10.52
2023-03-03T06:50:25.797Z,9.75
2023-03-03T06:53:20.015Z,9.30
2023-03-03T06:58:21.867Z,9.30
2023-03-03T07:00:55.881Z,9.25
2023-03-03T07:03:35.316Z,9.82
2023-03-03T07:06:14.669Z,10.93
2023-03-03T07:08:41.714Z,9.52
2023-03-03T07:11:16.310Z,10.00
2023-03-03T07:13:50.281Z,9.35
2023-03-03T07:16:19.312Z,9.88
2023-03-03T07:18:51.024Z,10.27
2023-03-03T07:21:36.864Z,9.43
2023-03-03T07:24:15.861Z,9.13
2023-03-03T07:26:42.928Z,8.85
2023-03-03T07:29:15.990Z,9.32
2023-03-03T07:31:47.701Z,8.93
2023-03-03T07:34:20.285Z,9.63
2023-03-03T07:36:48.736Z,9.57
2023-03-03T07:39:35.507Z,9.55
2023-03-03T07:42:39.921Z,9.90
2023-03-03T07:45:28.305Z,9.57
2023-03-03T07:48:09.664Z,10.02
2023-03-03T07:50:36.788Z,10.02
2023-03-03T07:53:06.473Z,9.80
2023-03-03T07:55:39.695Z,9.90
2023-03-03T07:58:16.570Z,10.32
2023-03-03T08:01:02.123Z,9.95
2023-03-03T08:03:29.375Z,10.23
2023-03-03T08:05:57.421Z,10.10
2023-03-03T08:08:31.884Z,7.50
2023-03-03T08:11:00.743Z,8.70
2023-03-03T08:13:41.079Z,7.63
2023-03-03T08:16:10.908Z,7.88
2023-03-03T08:18:48.228Z,8.30
2023-03-03T08:21:16.566Z,7.70
2023-03-03T08:23:44.772Z,7.63
2023-03-03T08:26:16.881Z,8.23
2023-03-03T08:28:43.971Z,7.80
2023-03-03T08:31:20.272Z,6.82
2023-03-03T08:33:52.254Z,7.53
2023-03-03T08:36:20.002Z,8.80
2023-03-03T08:38:47.306Z,7.82
2023-03-03T08:41:14.433Z,7.82
2023-03-03T08:43:41.730Z,8.52
2023-03-03T08:46:10.256Z,6.70
2023-03-03T08:48:37.998Z,7.43
2023-03-03T08:51:05.879Z,7.63
2023-03-03T08:53:36.368Z,7.43
2023-03-03T08:56:04.498Z,7.82
2023-03-03T08:58:35.497Z,6.75
2023-03-03T09:01:04.127Z,5.68
2023-03-03T09:03:31.583Z,5.72
2023-03-03T09:05:58.959Z,6.68
2023-03-03T09:08:26.095Z,5.85
2023-03-03T09:10:53.151Z,6.47
2023-03-03T09:13:20.911Z,6.60
2023-03-03T09:15:49.158Z,5.85
2023-03-03T09:18:30.031Z,6.05
2023-03-03T09:20:58.296Z,5.68
2023-03-03T09:23:36.919Z,5.93
2023-03-03T09:26:30.492Z,5.50
2023-03-03T09:29:11.163Z,5.38
2023-03-03T09:32:01.023Z,4.63
2023-03-03T09:34:36.951Z,5.28
2023-03-03T09:37:27.299Z,5.28
2023-03-03T09:39:56.321Z,5.03
2023-03-03T09:42:47.885Z,5.13
2023-03-03T09:45:33.066Z,5.43
2023-03-03T09:48:18.036Z,5.30
2023-03-03T09:51:12.977Z,4.50
2023-03-03T09:53:48.859Z,4.80
2023-03-03T09:56:24.876Z,5.68
2023-03-03T09:59:09.748Z,5.13
2023-03-03T10:01:51.754Z,5.55
2023-03-03T10:04:37.263Z,4.50
2023-03-03T10:07:21.114Z,5.40
2023-03-03T10:10:03.361Z,4.78
2023-03-03T10:12:54.570Z,4.50
2023-03-03T10:15:54.373Z,3.95
2023-03-03T10:18:36.589Z,4.38
2023-03-03T10:21:32.739Z,4.78
2023-03-03T10:24:27.489Z,4.40
2023-03-03T10:27:13.758Z,4.20
2023-03-03T10:30:10.807Z,4.15
2023-03-03T10:32:48.649Z,4.47
2023-03-03T10:35:31.129Z,3.95
2023-03-03T10:38:05.075Z,3.83
2023-03-03T10:40:51.524Z,4.30
2023-03-03T10:43:43.091Z,4.57
2023-03-03T10:46:19.509Z,4.20
2023-03-03T10:49:14.736Z,4.38
2023-03-03T10:52:09.476Z,4.22
2023-03-03T10:54:51.554Z,3.67
2023-03-03T10:57:41.278Z,3.63
2023-03-03T11:00:24.127Z,3.97
2023-03-03T11:03:05.316Z,3.95
2023-03-03T11:05:53.095Z,3.05
2023-03-03T11:08:46.147Z,3.55
2023-03-03T11:11:35.856Z,2.95
2023-03-03T11:14:17.326Z,2.97
2023-03-03T11:16:44.351Z,3.25
2023-03-03T11:19:28.395Z,3.22
2023-03-03T11:24:34.664Z,2.65
2023-03-03T11:27:07.600Z,1.67
2023-03-03T11:29:58.744Z,1.80
2023-03-03T11:33:03.386Z,1.75
2023-03-03T11:38:08.010Z,1.48
2023-03-03T11:40:48.864Z,1.85
2023-03-03T11:43:39.758Z,1.38
2023-03-03T11:46:17.038Z,1.40
2023-03-03T11:49:03.437Z,1.50
2023-03-03T11:52:02.860Z,1.23
2023-03-03T11:54:36.297Z,1.35
2023-03-03T11:57:28.466Z,1.25
2023-03-03T12:00:03.126Z,1.20
2023-03-03T12:02:45.450Z,1.08
2023-03-03T12:05:30.130Z,1.20
2023-03-03T12:08:16.298Z,1.20
2023-03-03T12:10:58.629Z,1.30
2023-03-03T12:13:36.702Z,1.40
2023-03-03T12:16:09.411Z,0.88
2023-03-03T12:18:42.210Z,0.47
2023-03-03T12:21:38.252Z,0.97
2023-03-03T12:24:11.694Z,0.70
2023-03-03T12:26:54.462Z,0.43
2023-03-03T12:29:35.330Z,0.90
2023-03-03T12:32:16.693Z,0.80
2023-03-03T12:35:13.250Z,0.65
2023-03-03T12:38:04.219Z,1.10
2023-03-03T12:40:36.147Z,1.20
2023-03-03T12:43:17.586Z,1.83
2023-03-03T12:45:56.237Z,1.27
2023-03-03T12:48:43.999Z,1.30
2023-03-03T12:51:22.446Z,1.30
2023-03-03T12:54:12.104Z,1.92
2023-03-03T12:57:05.526Z,1.85
2023-03-03T12:59:54.801Z,1.87
2023-03-03T13:02:43.765Z,1.70
2023-03-03T13:05:10.857Z,1.33
2023-03-03T13:08:06.417Z,1.50
2023-03-03T13:11:00.029Z,1.65
2023-03-03T13:13:38.827Z,1.30
2023-03-03T13:16:17.306Z,1.60
2023-03-03T13:18:57.809Z,1.90
2023-03-03T13:21:40.793Z,1.77
2023-03-03T13:24:25.564Z,1.60
2023-03-03T13:27:01.557Z,1.40
2023-03-03T13:29:41.951Z,1.60
2023-03-03T13:32:17.868Z,1.42
2023-03-03T13:34:44.926Z,1.73
2023-03-03T13:37:37.821Z,1.85
2023-03-03T13:40:16.869Z,3.03
2023-03-03T13:42:49.178Z,2.13
2023-03-03T13:45:37.283Z,1.80
2023-03-03T13:48:41.412Z,1.60
2023-03-03T13:51:21.155Z,1.70
2023-03-03T13:53:53.880Z,1.83
2023-03-03T13:56:50.318Z,1.45
2023-03-03T13:59:20.278Z,1.45
2023-03-03T14:01:54.981Z,1.42
2023-03-03T14:04:33.487Z,2.03
2023-03-03T14:07:43.068Z,1.40
2023-03-03T14:10:21.920Z,0.88
2023-03-03T14:13:00.716Z,0.98
2023-03-03T14:15:38.668Z,1.50
2023-03-03T14:18:14.611Z,1.50
2023-03-03T14:20:48.949Z,1.40
2023-03-03T14:23:38.481Z,1.23
2023-03-03T14:26:10.736Z,1.20
2023-03-03T14:28:47.170Z,1.00
2023-03-03T14:31:30.747Z,1.30
2023-03-03T14:34:03.413Z,1.25
2023-03-03T14:36:38.844Z,0.80
2023-03-03T14:39:30.561Z,0.98
2023-03-03T14:41:59.389Z,1.08
2023-03-03T14:44:49.422Z,0.80
2023-03-03T14:47:24.962Z,1.23
2023-03-03T14:49:54.720Z,0.95
2023-03-03T14:52:24.917Z,0.90
2023-03-03T14:55:00.806Z,1.05
2023-03-03T14:57:51.481Z,1.08
2023-03-03T15:00:24.547Z,1.27
2023-03-03T15:03:11.031Z,1.05
2023-03-03T15:05:52.179Z,1.20
2023-03-03T15:08:33.505Z,1.30
2023-03-03T15:11:25.662Z,0.95
2023-03-03T15:13:52.886Z,1.00
2023-03-03T15:16:31.151Z,1.00
2023-03-03T15:19:01.669Z,1.08
2023-03-03T15:21:35.289Z,1.02
2023-03-03T15:24:28.475Z,1.48
2023-03-03T15:27:27.327Z,1.35
2023-03-03T15:30:12.889Z,1.00
2023-03-03T15:32:53.885Z,0.88
2023-03-03T15:35:53.827Z,0.90
2023-03-03T15:38:51.406Z,0.95
2023-03-03T15:41:37.224Z,1.70
2023-03-03T15:44:16.694Z,0.90
2023-03-03T15:46:43.722Z,1.00
2023-03-03T15:49:22.651Z,1.02
2023-03-03T15:52:22.774Z,1.33
2023-03-03T15:54:59.780Z,1.60
2023-03-03T15:57:57.438Z,0.70
2023-03-03T16:00:55.089Z,0.77
2023-03-03T16:03:52.019Z,1.13
2023-03-03T16:06:38.266Z,1.40
2023-03-03T16:09:20.356Z,1.27
2023-03-03T16:11:51.451Z,1.48
2023-03-03T16:14:36.625Z,1.30
2023-03-03T16:17:22.313Z,1.17
2023-03-03T16:19:53.718Z,1.20
2023-03-03T16:22:29.249Z,1.58
2023-03-03T16:25:02.165Z,1.23
2023-03-03T16:27:35.110Z,1.50
2023-03-03T16:30:20.254Z,1.70
2023-03-03T16:33:19.494Z,1.50
2023-03-03T16:36:00.589Z,2.05
2023-03-03T16:38:32.495Z,2.22
2023-03-03T16:41:04.766Z,2.45
2023-03-03T16:43:31.721Z,3.30
2023-03-03T16:46:21.313Z,1.83
2023-03-03T16:49:00.591Z,1.65
2023-03-03T16:51:41.426Z,1.52
2023-03-03T16:54:37.000Z,2.22
2023-03-03T16:57:49.120Z,2.00
2023-03-03T17:00:28.551Z,1.25
2023-03-03T17:03:04.433Z,1.75
2023-03-03T17:05:47.780Z,2.13
2023-03-03T17:08:28.811Z,2.20
2023-03-03T17:11:08.291Z,2.25
2023-03-03T17:13:47.576Z,1.25
2023-03-03T17:16:37.063Z,1.85
2023-03-03T17:19:24.952Z,2.33
2023-03-03T17:22:11.907Z,2.30
2023-03-03T17:24:41.708Z,2.03
2023-03-03T17:27:17.418Z,2.28
2023-03-03T17:30:10.505Z,1.75
2023-03-03T17:32:43.496Z,2.00
2023-03-03T17:35:18.728Z,1.95
2023-03-03T17:37:51.395Z,1.60
2023-03-03T17:40:52.946Z,3.60
2023-03-03T17:43:29.055Z,3.80
2023-03-03T17:46:01.773Z,2.70
2023-03-03T17:48:31.718Z,2.47
2023-03-03T17:51:07.409Z,3.72
2023-03-03T17:53:46.455Z,3.28
2023-03-03T17:56:37.902Z,2.60
2023-03-03T17:59:35.268Z,1.98
2023-03-03T18:02:30.533Z,2.22
2023-03-03T18:05:21.162Z,3.15
2023-03-03T18:08:45.738Z,3.00
2023-03-03T18:11:18.497Z,2.78
2023-03-03T18:14:00.645Z,2.90
2023-03-03T18:16:51.925Z,2.53
2023-03-03T18:19:30.826Z,3.47
2023-03-03T18:22:21.599Z,2.75
2023-03-03T18:24:51.274Z,3.05
2023-03-03T18:27:23.868Z,2.38
2023-03-03T18:30:24.876Z,2.72
2023-03-03T18:32:57.814Z,3.70
2023-03-03T18:35:33.899Z,3.00
2023-03-03T18:38:16.246Z,2.92
2023-03-03T18:41:03.743Z,3.38
2023-03-03T18:43:39.694Z,2.28
2023-03-03T18:46:32.228Z,3.10
2023-03-03T18:49:10.631Z,2.88
2023-03-03T18:51:40.817Z,2.88
2023-03-03T18:54:14.152Z,2.63
2023-03-03T18:56:50.053Z,2.08
2023-03-03T18:59:35.161Z,2.25
2023-03-03T19:02:10.995Z,1.88
2023-03-03T19:04:41.645Z,2.25
2023-03-03T19:07:27.251Z,3.17
2023-03-03T19:09:58.689Z,3.03
2023-03-03T19:12:59.949Z,2.70
2023-03-03T19:15:29.730Z,2.40
2023-03-03T19:18:21.161Z,3.35
2023-03-03T19:20:59.788Z,2.05
2023-03-03T19:23:47.312Z,2.28
2023-03-03T19:26:28.418Z,2.45
2023-03-03T19:29:31.168Z,2.20
2023-03-03T19:32:09.606Z,3.45
2023-03-03T19:35:09.818Z,3.38
2023-03-03T19:37:47.063Z,2.92
2023-03-03T19:40:56.757Z,3.08
2023-03-03T19:44:06.185Z,3.38
2023-03-03T19:46:52.593Z,3.25
2023-03-03T19:49:42.551Z,2.67
2023-03-03T19:52:28.701Z,2.53
2023-03-03T19:55:11.893Z,1.95
2023-03-03T19:57:45.924Z,1.50
2023-03-03T20:00:34.693Z,2.42
2023-03-03T20:03:20.175Z,2.75
2023-03-03T20:06:21.979Z,3.60
2023-03-03T20:08:58.835Z,3.75
2023-03-03T20:11:37.930Z,3.15
2023-03-03T20:14:31.463Z,2.53
2023-03-03T20:17:29.260Z,2.67
2023-03-03T20:20:17.282Z,2.90
2023-03-03T20:22:54.265Z,3.15
2023-03-03T20:25:34.113Z,3.10
2023-03-03T20:28:23.977Z,2.85
2023-03-03T20:31:11.763Z,3.38
2023-03-03T20:34:11.284Z,3.10
2023-03-03T20:36:54.619Z,3.92
2023-03-03T20:39:46.378Z,3.22
2023-03-03T20:42:19.224Z,2.72
2023-03-03T20:45:06.272Z,3.90
2023-03-03T20:47:39.012Z,3.88
2023-03-03T20:50:27.585Z,3.13
2023-03-03T20:53:31.650Z,3.38
2023-03-03T20:56:10.690Z,4.30
2023-03-03T20:58:52.576Z,3.65
2023-03-03T21:01:59.197Z,2.78
2023-03-03T21:04:29.043Z,3.30
2023-03-03T21:07:00.748Z,3.83
2023-03-03T21:09:34.096Z,3.08
2023-03-03T21:12:04.764Z,3.50
2023-03-03T21:14:36.425Z,3.35
2023-03-03T21:17:29.072Z,2.92
2023-03-03T21:20:21.565Z,3.28
2023-03-03T21:22:48.682Z,2.88
2023-03-03T21:25:40.717Z,2.67
2023-03-03T21:28:30.207Z,2.63
2023-03-03T21:31:10.753Z,3.72
2023-03-03T21:33:45.192Z,3.28
2023-03-03T21:36:23.598Z,2.88
2023-03-03T21:38:53.023Z,2.53
2023-03-03T21:41:21.235Z,2.72
2023-03-03T21:43:51.695Z,3.20
2023-03-03T21:46:24.211Z,2.55
2023-03-03T21:48:52.355Z,2.90
2023-03-03T21:51:20.455Z,2.83
2023-03-03T21:53:47.805Z,2.70
2023-03-03T21:56:15.145Z,2.92
2023-03-03T21:58:43.079Z,2.72
2023-03-03T22:01:10.280Z,3.20
2023-03-03T22:03:37.620Z,2.60
2023-03-03T22:06:04.910Z,3.00
2023-03-03T22:08:32.048Z,3.25
2023-03-03T22:10:59.130Z,3.35
2023-03-03T22:13:27.553Z,3.17
2023-03-03T22:15:55.280Z,3.28
2023-03-03T22:18:22.492Z,3.35
2023-03-03T22:20:50.634Z,2.40
2023-03-03T22:23:18.904Z,2.05
2023-03-03T22:25:46.185Z,2.25
2023-03-03T22:28:13.507Z,2.67
2023-03-03T22:30:40.942Z,3.05
2023-03-03T22:33:08.207Z,2.60
2023-03-03T22:35:35.407Z,2.50
2023-03-03T22:38:05.295Z,2.35
2023-03-03T22:40:33.518Z,2.40
2023-03-03T22:43:00.688Z,3.00
2023-03-03T22:45:31.424Z,3.00
2023-03-03T22:47:59.334Z,2.90
2023-03-03T22:50:26.546Z,2.60
2023-03-03T22:52:55.092Z,1.88
2023-03-03T22:55:22.543Z,1.83
2023-03-03T22:57:50.059Z,2.20
2023-03-03T23:00:24.720Z,2.28
2023-03-03T23:02:51.911Z,2.40
2023-03-03T23:05:19.139Z,2.75
2023-03-03T23:07:46.344Z,2.88
2023-03-03T23:10:13.969Z,2.90
2023-03-03T23:12:41.234Z,2.65
2023-03-03T23:15:13.337Z,2.10
2023-03-03T23:17:42.251Z,2.25
2023-03-03T23:20:17.619Z,2.78
2023-03-03T23:22:44.806Z,2.63
2023-03-03T23:25:13.786Z,2.13
2023-03-03T23:27:42.230Z,2.17
2023-03-03T23:30:11.500Z,2.72
2023-03-03T23:32:40.258Z,2.67
2023-03-03T23:35:07.959Z,2.65
2023-03-03T23:37:35.091Z,2.53
2023-03-03T23:40:02.429Z,2.53
2023-03-03T23:42:30.710Z,2.17
2023-03-03T23:44:58.814Z,2.47
2023-03-03T23:47:25.998Z,2.22
2023-03-03T23:49:53.167Z,1.83
2023-03-03T23:52:20.458Z,1.92
2023-03-03T23:54:47.641Z,3.08
2023-03-03T23:57:14.728Z,1.38
2023-03-03T23:59:41.819Z,2.33
